createdAt,value
2018-04-01T00:01:08.630Z,24.75
2018-04-01T00:03:36.923Z,24.86
2018-04-01T00:06:05.686Z,24.81
2018-04-01T00:08:34.174Z,24.72
2018-04-01T00:11:02.568Z,24.62
2018-04-01T00:13:31.302Z,24.60
2018-04-01T00:15:59.520Z,24.60
2018-04-01T00:18:28.182Z,24.61
2018-04-01T00:20:56.702Z,24.48
2018-04-01T00:23:25.124Z,24.55
2018-04-01T00:25:53.640Z,24.51
2018-04-01T00:28:22.265Z,24.50
2018-04-01T00:30:50.664Z,24.40
2018-04-01T00:33:18.869Z,24.32
2018-04-01T00:35:47.335Z,24.27
2018-04-01T00:38:15.960Z,24.37
2018-04-01T00:40:44.446Z,24.10
2018-04-01T00:43:12.926Z,24.12
2018-04-01T00:45:41.635Z,23.97
2018-04-01T00:48:10.414Z,24.03
2018-04-01T00:50:38.737Z,23.94
2018-04-01T00:53:07.198Z,24.03
2018-04-01T00:55:35.658Z,24.03
2018-04-01T00:58:03.955Z,23.96
2018-04-01T01:00:32.540Z,23.91
2018-04-01T01:03:01.207Z,23.93
2018-04-01T01:05:29.647Z,24.07
2018-04-01T01:07:58.462Z,24.08
2018-04-01T01:10:26.743Z,24.21
2018-04-01T01:12:55.213Z,24.15
2018-04-01T01:15:23.546Z,24.24
2018-04-01T01:17:52.067Z,24.28
2018-04-01T01:20:20.480Z,24.34
2018-04-01T01:22:48.976Z,24.51
2018-04-01T01:25:17.667Z,24.44
2018-04-01T01:27:46.163Z,24.56
2018-04-01T01:30:14.625Z,24.76
2018-04-01T01:32:43.195Z,24.80
2018-04-01T01:35:11.826Z,25.03
2018-04-01T01:37:40.797Z,25.38
2018-04-01T01:40:09.271Z,25.39
2018-04-01T01:42:37.914Z,25.16
2018-04-01T01:45:06.531Z,25.62
2018-04-01T01:47:35.000Z,25.83
2018-04-01T01:50:03.589Z,25.83
2018-04-01T01:52:32.240Z,25.99
2018-04-01T01:55:00.407Z,25.64
2018-04-01T01:57:28.979Z,26.26
2018-04-01T01:59:58.076Z,26.59
2018-04-01T02:02:26.443Z,26.61
2018-04-01T02:04:55.177Z,26.87
2018-04-01T02:07:23.998Z,26.70
2018-04-01T02:09:52.332Z,27.01
2018-04-01T02:12:20.763Z,27.41
2018-04-01T02:14:49.388Z,27.70
2018-04-01T02:17:17.657Z,27.59
2018-04-01T02:19:46.258Z,27.96
2018-04-01T02:22:15.124Z,28.26
2018-04-01T02:24:43.422Z,27.60
2018-04-01T02:27:12.391Z,27.99
2018-04-01T02:29:40.495Z,27.54
2018-04-01T02:32:09.075Z,28.04
2018-04-01T02:34:37.904Z,28.50
2018-04-01T02:37:06.404Z,28.51
2018-04-01T02:39:34.870Z,28.14
2018-04-01T02:42:03.590Z,28.35
2018-04-01T02:44:32.082Z,28.33
2018-04-01T02:47:00.457Z,28.89
2018-04-01T02:49:28.762Z,28.94
2018-04-01T02:51:57.141Z,29.50
2018-04-01T02:54:25.025Z,28.91
2018-04-01T02:56:53.596Z,29.76
2018-04-01T02:59:21.860Z,29.87
2018-04-01T03:01:50.377Z,29.56
2018-04-01T03:04:19.296Z,29.24
2018-04-01T03:06:47.725Z,29.59
2018-04-01T03:09:16.588Z,30.16
2018-04-01T03:11:45.181Z,30.15
2018-04-01T03:14:14.026Z,30.31
2018-04-01T03:16:42.678Z,30.84
2018-04-01T03:19:11.323Z,30.97
2018-04-01T03:21:39.579Z,31.19
2018-04-01T03:24:08.162Z,31.10
2018-04-01T03:26:36.607Z,30.88
2018-04-01T03:29:05.347Z,30.73
2018-04-01T03:31:34.050Z,30.98
2018-04-01T03:34:02.451Z,31.66
2018-04-01T03:36:30.790Z,31.50
2018-04-01T03:38:59.421Z,31.66
2018-04-01T03:41:28.038Z,31.51
2018-04-01T03:43:56.704Z,31.79
2018-04-01T03:46:25.428Z,32.24
2018-04-01T03:48:53.801Z,31.42
2018-04-01T03:51:22.423Z,32.26
2018-04-01T03:53:51.467Z,32.64
2018-04-01T03:56:20.053Z,32.77
2018-04-01T03:58:49.081Z,32.62
2018-04-01T04:01:17.975Z,33.12
2018-04-01T04:03:46.790Z,31.98
2018-04-01T04:06:15.466Z,32.65
2018-04-01T04:08:43.753Z,32.35
2018-04-01T04:11:12.510Z,32.63
2018-04-01T04:13:41.295Z,32.78
2018-04-01T04:16:09.808Z,33.37
2018-04-01T04:18:38.459Z,33.45
2018-04-01T04:21:07.364Z,32.98
2018-04-01T04:23:37.071Z,32.45
2018-04-01T04:26:06.019Z,32.98
2018-04-01T04:28:34.514Z,33.76
2018-04-01T04:31:03.089Z,32.77
2018-04-01T04:33:33.058Z,33.82
2018-04-01T04:36:01.573Z,33.86
2018-04-01T04:38:30.228Z,32.93
2018-04-01T04:40:58.861Z,32.83
2018-04-01T04:43:27.193Z,33.93
2018-04-01T04:45:55.862Z,34.25
2018-04-01T04:48:24.403Z,33.77
2018-04-01T04:50:52.882Z,33.86
2018-04-01T04:53:21.633Z,34.18
2018-04-01T04:55:50.150Z,34.43
2018-04-01T04:58:18.562Z,34.11
2018-04-01T05:00:47.002Z,34.08
2018-04-01T05:03:15.497Z,34.46
2018-04-01T05:05:44.223Z,34.60
2018-04-01T05:08:13.045Z,34.97
2018-04-01T05:10:41.733Z,34.14
2018-04-01T05:13:10.133Z,33.54
2018-04-01T05:15:38.464Z,34.63
2018-04-01T05:18:07.165Z,35.03
2018-04-01T05:20:36.106Z,34.73
2018-04-01T05:23:04.918Z,34.77
2018-04-01T05:25:33.546Z,34.61
2018-04-01T05:28:02.198Z,34.17
2018-04-01T05:30:30.665Z,34.63
2018-04-01T05:32:59.568Z,34.10
2018-04-01T05:35:28.397Z,33.53
2018-04-01T05:37:57.220Z,34.56
2018-04-01T05:40:27.025Z,34.82
2018-04-01T05:42:56.140Z,34.79
2018-04-01T05:45:24.663Z,35.29
2018-04-01T05:47:53.231Z,35.14
2018-04-01T05:50:22.080Z,34.92
2018-04-01T05:52:50.173Z,35.05
2018-04-01T05:55:18.543Z,35.31
2018-04-01T05:57:47.152Z,35.48
2018-04-01T06:00:16.004Z,35.75
2018-04-01T06:02:44.872Z,35.48
2018-04-01T06:05:13.437Z,35.88
2018-04-01T06:07:41.967Z,35.98
2018-04-01T06:10:10.494Z,36.07
2018-04-01T06:12:39.335Z,35.23
2018-04-01T06:15:07.873Z,35.67
2018-04-01T06:17:36.565Z,36.27
2018-04-01T06:20:05.032Z,35.64
2018-04-01T06:22:33.510Z,35.68
2018-04-01T06:25:02.195Z,35.85
2018-04-01T06:27:30.632Z,35.75
2018-04-01T06:29:59.357Z,36.05
2018-04-01T06:32:28.075Z,36.48
2018-04-01T06:34:56.663Z,36.78
2018-04-01T06:37:24.946Z,36.55
2018-04-01T06:39:53.787Z,36.15
2018-04-01T06:42:22.197Z,35.82
2018-04-01T06:44:50.899Z,35.74
2018-04-01T06:47:19.538Z,35.99
2018-04-01T06:49:47.960Z,36.69
2018-04-01T06:52:16.342Z,35.97
2018-04-01T06:54:44.788Z,36.39
2018-04-01T06:57:13.130Z,35.52
2018-04-01T06:59:41.849Z,35.81
2018-04-01T07:02:10.618Z,36.10
2018-04-01T07:04:39.236Z,36.19
2018-04-01T07:07:08.046Z,36.24
2018-04-01T07:09:36.347Z,36.73
2018-04-01T07:12:05.109Z,36.60
2018-04-01T07:14:33.928Z,36.53
2018-04-01T07:17:04.315Z,37.05
2018-04-01T07:19:33.196Z,37.07
2018-04-01T07:22:01.703Z,36.46
2018-04-01T07:24:30.207Z,36.52
2018-04-01T07:26:59.185Z,35.15
2018-04-01T07:29:27.799Z,35.96
2018-04-01T07:31:56.214Z,36.27
2018-04-01T07:34:24.797Z,36.35
2018-04-01T07:36:53.470Z,36.54
2018-04-01T07:39:22.300Z,36.23
2018-04-01T07:41:51.237Z,36.66
2018-04-01T07:44:20.431Z,36.80
2018-04-01T07:46:48.849Z,36.46
2018-04-01T07:49:17.427Z,36.48
2018-04-01T07:51:47.316Z,36.41
2018-04-01T07:54:15.937Z,36.50
2018-04-01T07:56:44.350Z,36.48
2018-04-01T07:59:13.143Z,36.63
2018-04-01T08:01:42.113Z,36.65
2018-04-01T08:04:11.430Z,36.99
2018-04-01T08:06:40.377Z,37.02
2018-04-01T08:09:08.866Z,37.06
2018-04-01T08:11:38.164Z,36.51
2018-04-01T08:14:07.411Z,36.51
2018-04-01T08:16:36.156Z,36.49
2018-04-01T08:19:04.535Z,36.38
2018-04-01T08:21:33.025Z,36.37
2018-04-01T08:24:01.832Z,36.24
2018-04-01T08:26:29.973Z,36.33
2018-04-01T08:28:58.643Z,36.07
2018-04-01T08:31:27.023Z,36.15
2018-04-01T08:33:56.224Z,36.11
2018-04-01T08:36:25.052Z,36.55
2018-04-01T08:38:53.748Z,36.82
2018-04-01T08:41:23.223Z,36.75
2018-04-01T08:43:56.605Z,36.45
2018-04-01T08:46:25.392Z,36.24
2018-04-01T08:48:54.170Z,36.12
2018-04-01T08:51:22.859Z,36.42
2018-04-01T08:53:52.491Z,36.46
2018-04-01T08:56:23.142Z,36.37
2018-04-01T08:58:52.553Z,36.46
2018-04-01T09:01:21.926Z,36.04
2018-04-01T09:03:51.324Z,35.76
2018-04-01T09:06:21.425Z,35.76
2018-04-01T09:08:54.097Z,35.97
2018-04-01T09:11:27.604Z,36.15
2018-04-01T09:13:57.053Z,35.94
2018-04-01T09:16:27.544Z,35.88
2018-04-01T09:21:35.620Z,36.07
2018-04-01T09:24:04.065Z,36.05
2018-04-01T09:26:33.035Z,36.03
2018-04-01T09:29:02.127Z,36.08
2018-04-01T09:31:32.861Z,36.08
2018-04-01T09:34:01.941Z,36.02
2018-04-01T09:36:30.519Z,35.77
2018-04-01T09:38:59.004Z,35.68
2018-04-01T09:41:30.456Z,35.86
2018-04-01T09:43:59.996Z,35.83
2018-04-01T09:46:32.727Z,35.91
2018-04-01T09:49:01.971Z,35.73
2018-04-01T09:51:30.838Z,35.58
2018-04-01T09:53:59.733Z,35.55
2018-04-01T09:56:29.953Z,35.47
2018-04-01T09:58:58.622Z,35.26
2018-04-01T10:01:28.561Z,35.56
2018-04-01T10:03:58.509Z,35.39
2018-04-01T10:06:28.079Z,35.48
2018-04-01T10:08:57.566Z,35.60
2018-04-01T10:11:26.965Z,35.50
2018-04-01T10:13:57.407Z,35.35
2018-04-01T10:16:27.226Z,35.32
2018-04-01T10:18:57.111Z,35.44
2018-04-01T10:21:26.576Z,35.17
2018-04-01T10:23:56.132Z,35.27
2018-04-01T10:26:25.392Z,35.30
2018-04-01T10:28:54.826Z,35.29
2018-04-01T10:31:24.137Z,35.29
2018-04-01T10:33:53.489Z,35.29
2018-04-01T10:36:22.965Z,35.20
2018-04-01T10:38:52.101Z,35.21
2018-04-01T10:41:21.708Z,35.34
2018-04-01T10:43:52.564Z,35.19
2018-04-01T10:46:21.873Z,35.19
2018-04-01T10:48:51.060Z,35.22
2018-04-01T10:51:20.269Z,35.22
2018-04-01T10:53:58.281Z,35.19
2018-04-01T10:56:26.701Z,35.24
2018-04-01T10:58:55.389Z,35.12
2018-04-01T11:01:24.119Z,35.10
2018-04-01T11:03:52.472Z,35.15
2018-04-01T11:06:21.112Z,35.03
2018-04-01T11:08:49.830Z,35.04
2018-04-01T11:11:19.730Z,35.03
2018-04-01T11:13:49.352Z,34.96
2018-04-01T11:16:18.172Z,34.96
2018-04-01T11:18:47.579Z,34.92
2018-04-01T11:21:16.998Z,34.90
2018-04-01T11:23:45.878Z,34.90
2018-04-01T11:26:14.475Z,34.81
2018-04-01T11:28:42.690Z,34.88
2018-04-01T11:34:01.603Z,34.80
2018-04-01T11:36:30.008Z,34.78
2018-04-01T11:38:58.600Z,34.73
2018-04-01T11:41:27.706Z,34.74
2018-04-01T11:43:56.577Z,34.72
2018-04-01T11:46:26.098Z,34.68
2018-04-01T11:48:54.816Z,34.64
2018-04-01T11:51:23.281Z,34.58
2018-04-01T11:53:51.996Z,34.54
2018-04-01T11:56:20.416Z,34.51
2018-04-01T11:58:48.719Z,34.47
2018-04-01T12:01:17.463Z,34.46
2018-04-01T12:03:46.172Z,34.41
2018-04-01T12:06:15.005Z,34.38
2018-04-01T12:08:45.243Z,34.41
2018-04-01T12:11:14.256Z,34.32
2018-04-01T12:13:42.828Z,34.29
2018-04-01T12:16:11.624Z,34.25
2018-04-01T12:18:40.711Z,34.22
2018-04-01T12:21:10.105Z,34.20
2018-04-01T12:23:38.590Z,34.09
2018-04-01T12:26:06.873Z,34.10
2018-04-01T12:28:35.571Z,34.02
2018-04-01T12:31:03.833Z,33.95
2018-04-01T12:33:32.228Z,33.92
2018-04-01T12:36:00.662Z,33.89
2018-04-01T12:38:29.175Z,33.80
2018-04-01T12:40:58.025Z,33.75
2018-04-01T12:43:26.451Z,33.65
2018-04-01T12:45:54.743Z,33.59
2018-04-01T12:48:23.495Z,33.50
2018-04-01T12:50:52.067Z,33.52
2018-04-01T12:53:20.254Z,33.44
2018-04-01T12:55:49.178Z,33.37
2018-04-01T12:58:17.863Z,33.35
2018-04-01T13:00:46.259Z,33.30
2018-04-01T13:03:15.015Z,33.24
2018-04-01T13:05:43.632Z,33.14
2018-04-01T13:08:12.304Z,33.05
2018-04-01T13:10:40.860Z,32.97
2018-04-01T13:13:10.381Z,32.90
2018-04-01T13:15:41.204Z,32.84
2018-04-01T13:18:09.956Z,32.76
2018-04-01T13:20:38.410Z,32.73
2018-04-01T13:23:06.749Z,32.64
2018-04-01T13:25:35.185Z,32.58
2018-04-01T13:28:03.805Z,32.53
2018-04-01T13:30:32.319Z,32.47
2018-04-01T13:33:00.814Z,32.41
2018-04-01T13:35:29.575Z,32.31
2018-04-01T13:37:58.048Z,32.28
2018-04-01T13:40:28.278Z,32.23
2018-04-01T13:42:56.635Z,32.16
2018-04-01T13:45:26.902Z,32.12
2018-04-01T13:47:58.593Z,32.06
2018-04-01T13:50:27.957Z,32.07
2018-04-01T13:52:56.648Z,32.06
2018-04-01T13:55:25.713Z,32.00
2018-04-01T13:57:55.488Z,31.96
2018-04-01T14:00:26.212Z,31.91
2018-04-01T14:02:58.062Z,31.86
2018-04-01T14:05:26.678Z,31.86
2018-04-01T14:07:55.407Z,31.83
2018-04-01T14:10:23.882Z,31.72
2018-04-01T14:12:54.893Z,31.70
2018-04-01T14:15:25.152Z,31.69
2018-04-01T14:17:56.909Z,31.59
2018-04-01T14:20:25.804Z,31.55
2018-04-01T14:22:54.730Z,31.53
2018-04-01T14:25:23.375Z,31.50
2018-04-01T14:27:51.968Z,31.46
2018-04-01T14:30:20.187Z,31.46
2018-04-01T14:32:48.656Z,31.41
2018-04-01T14:35:17.492Z,31.38
2018-04-01T14:37:45.511Z,31.30
2018-04-01T14:40:13.793Z,31.22
2018-04-01T14:42:42.307Z,31.26
2018-04-01T14:45:10.589Z,31.21
2018-04-01T14:47:39.282Z,31.19
2018-04-01T14:50:07.816Z,31.12
2018-04-01T14:52:36.075Z,31.06
2018-04-01T14:55:04.241Z,31.00
2018-04-01T14:57:32.803Z,31.01
2018-04-01T15:00:01.394Z,30.98
2018-04-01T15:02:29.574Z,30.95
2018-04-01T15:04:58.107Z,30.91
2018-04-01T15:07:26.735Z,30.90
2018-04-01T15:09:55.461Z,30.86
2018-04-01T15:12:24.064Z,30.78
2018-04-01T15:14:52.358Z,30.75
2018-04-01T15:17:21.055Z,30.72
2018-04-01T15:19:49.520Z,30.70
2018-04-01T15:22:18.097Z,30.62
2018-04-01T15:24:47.155Z,30.60
2018-04-01T15:27:22.243Z,30.64
2018-04-01T15:29:51.729Z,30.55
2018-04-01T15:32:20.458Z,30.51
2018-04-01T15:37:43.077Z,30.38
2018-04-01T15:40:12.232Z,30.38
2018-04-01T15:42:41.260Z,30.40
2018-04-01T15:45:10.071Z,30.37
2018-04-01T15:47:39.196Z,30.36
2018-04-01T15:50:08.040Z,30.29
2018-04-01T15:52:36.740Z,30.24
2018-04-01T15:55:06.175Z,30.21
2018-04-01T15:57:35.291Z,30.12
2018-04-01T16:00:04.175Z,30.10
2018-04-01T16:02:35.843Z,30.08
2018-04-01T16:05:06.212Z,30.07
2018-04-01T16:07:36.476Z,30.08
2018-04-01T16:10:05.758Z,30.03
2018-04-01T16:12:36.777Z,29.96
2018-04-01T16:15:07.495Z,29.98
2018-04-01T16:17:38.355Z,29.90
2018-04-01T16:20:08.457Z,29.82
2018-04-01T16:22:37.220Z,29.85
2018-04-01T16:25:06.294Z,29.79
2018-04-01T16:27:35.617Z,29.70
2018-04-01T16:30:05.118Z,29.58
2018-04-01T16:32:33.920Z,29.61
2018-04-01T16:35:03.133Z,29.61
2018-04-01T16:37:32.130Z,29.66
2018-04-01T16:40:01.310Z,29.60
2018-04-01T16:42:30.750Z,29.55
2018-04-01T16:45:00.842Z,29.50
2018-04-01T16:47:30.173Z,29.51
2018-04-01T16:50:02.614Z,29.42
2018-04-01T16:52:32.913Z,29.45
2018-04-01T16:55:04.097Z,29.40
2018-04-01T16:57:33.695Z,29.39
2018-04-01T17:00:03.208Z,29.34
2018-04-01T17:02:32.314Z,29.33
2018-04-01T17:05:01.422Z,29.24
2018-04-01T17:07:30.573Z,29.22
2018-04-01T17:09:59.032Z,29.20
2018-04-01T17:12:28.782Z,29.09
2018-04-01T17:14:58.984Z,29.09
2018-04-01T17:17:28.187Z,29.01
2018-04-01T17:19:57.067Z,29.05
2018-04-01T17:22:25.762Z,28.96
2018-04-01T17:24:55.842Z,28.98
2018-04-01T17:27:27.276Z,28.97
2018-04-01T17:29:56.928Z,28.93
2018-04-01T17:32:25.247Z,28.86
2018-04-01T17:34:54.264Z,28.89
2018-04-01T17:37:22.884Z,28.71
2018-04-01T17:39:52.041Z,28.62
2018-04-01T17:42:20.689Z,28.64
2018-04-01T17:44:49.552Z,28.47
2018-04-01T17:47:18.431Z,28.57
2018-04-01T17:49:47.338Z,28.58
2018-04-01T17:52:16.540Z,28.54
2018-04-01T17:54:48.777Z,28.62
2018-04-01T17:57:17.896Z,28.43
2018-04-01T17:59:46.903Z,28.41
2018-04-01T18:02:21.336Z,28.38
2018-04-01T18:04:49.765Z,28.27
2018-04-01T18:07:18.575Z,28.27
2018-04-01T18:09:47.010Z,28.37
2018-04-01T18:12:16.828Z,28.33
2018-04-01T18:14:45.449Z,28.31
2018-04-01T18:17:13.993Z,28.17
2018-04-01T18:19:44.708Z,28.11
2018-04-01T18:22:13.971Z,28.07
2018-04-01T18:24:42.634Z,28.11
2018-04-01T18:27:11.758Z,28.14
2018-04-01T18:29:40.530Z,28.15
2018-04-01T18:32:09.511Z,28.11
2018-04-01T18:34:38.769Z,27.99
2018-04-01T18:37:07.288Z,27.96
2018-04-01T18:39:36.512Z,27.93
2018-04-01T18:42:05.245Z,27.90
2018-04-01T18:44:33.640Z,27.81
2018-04-01T18:47:02.744Z,27.75
2018-04-01T18:49:31.636Z,27.75
2018-04-01T18:52:02.581Z,27.64
2018-04-01T18:54:32.010Z,27.68
2018-04-01T18:57:01.763Z,27.70
2018-04-01T18:59:30.471Z,27.59
2018-04-01T19:01:59.103Z,27.57
2018-04-01T19:04:27.514Z,27.65
2018-04-01T19:06:55.653Z,27.61
2018-04-01T19:09:24.360Z,27.52
2018-04-01T19:11:52.849Z,27.52
2018-04-01T19:14:21.337Z,27.48
2018-04-01T19:17:00.682Z,27.55
2018-04-01T19:19:30.248Z,27.55
2018-04-01T19:21:59.787Z,27.48
2018-04-01T19:24:29.034Z,27.51
2018-04-01T19:26:58.412Z,27.43
2018-04-01T19:29:27.622Z,27.40
2018-04-01T19:31:57.148Z,27.43
2018-04-01T19:34:26.867Z,27.44
2018-04-01T19:36:56.704Z,27.50
2018-04-01T19:39:26.309Z,27.42
2018-04-01T19:41:55.622Z,27.42
2018-04-01T19:44:24.939Z,27.33
2018-04-01T19:47:10.064Z,27.28
2018-04-01T19:49:39.421Z,27.32
2018-04-01T19:52:08.522Z,27.38
2018-04-01T19:54:37.792Z,27.36
2018-04-01T19:57:07.241Z,27.40
2018-04-01T19:59:36.671Z,27.36
2018-04-01T20:02:06.201Z,27.39
2018-04-01T20:04:35.427Z,27.35
2018-04-01T20:07:04.842Z,27.27
2018-04-01T20:09:34.107Z,27.31
2018-04-01T20:12:03.351Z,27.34
2018-04-01T20:14:32.621Z,27.27
2018-04-01T20:17:01.909Z,27.28
2018-04-01T20:19:31.294Z,27.25
2018-04-01T20:22:00.360Z,27.28
2018-04-01T20:24:29.447Z,27.21
2018-04-01T20:26:58.387Z,27.26
2018-04-01T20:29:27.724Z,27.19
2018-04-01T20:31:56.815Z,27.20
2018-04-01T20:34:26.079Z,27.25
2018-04-01T20:36:55.013Z,27.25
2018-04-01T20:39:23.975Z,27.26
2018-04-01T20:41:53.160Z,27.17
2018-04-01T20:44:22.268Z,27.25
2018-04-01T20:46:51.427Z,27.25
2018-04-01T20:49:20.493Z,27.22
2018-04-01T20:51:49.661Z,27.18
2018-04-01T20:54:18.638Z,27.19
2018-04-01T20:56:48.032Z,27.15
2018-04-01T20:59:17.532Z,27.15
2018-04-01T21:01:46.979Z,27.14
2018-04-01T21:04:16.167Z,27.06
2018-04-01T21:06:45.478Z,27.10
2018-04-01T21:09:15.126Z,27.10
2018-04-01T21:11:44.362Z,27.14
2018-04-01T21:14:13.647Z,27.07
2018-04-01T21:16:42.996Z,27.03
2018-04-01T21:19:12.366Z,27.03
2018-04-01T21:21:41.838Z,26.94
2018-04-01T21:24:11.100Z,26.89
2018-04-01T21:26:40.021Z,26.92
2018-04-01T21:29:09.051Z,26.80
2018-04-01T21:31:38.372Z,26.79
2018-04-01T21:34:07.960Z,26.81
2018-04-01T21:36:37.325Z,26.81
2018-04-01T21:39:06.677Z,26.70
2018-04-01T21:41:35.621Z,26.72
2018-04-01T21:44:05.061Z,26.76
2018-04-01T21:46:34.403Z,26.70
2018-04-01T21:49:03.531Z,26.75
2018-04-01T21:51:32.665Z,26.68
2018-04-01T21:54:01.887Z,26.55
2018-04-01T21:56:30.912Z,26.50
2018-04-01T21:59:00.183Z,26.61
2018-04-01T22:01:29.347Z,26.65
2018-04-01T22:03:58.542Z,26.54
2018-04-01T22:06:27.922Z,26.60
2018-04-01T22:08:57.107Z,26.56
2018-04-01T22:11:26.345Z,26.54
2018-04-01T22:13:55.318Z,26.53
2018-04-01T22:16:24.679Z,26.42
2018-04-01T22:18:54.043Z,26.47
2018-04-01T22:21:23.208Z,26.46
2018-04-01T22:23:52.727Z,26.42
2018-04-01T22:26:22.121Z,26.42
2018-04-01T22:28:51.274Z,26.27
2018-04-01T22:31:20.535Z,26.14
2018-04-01T22:33:49.688Z,26.06
2018-04-01T22:36:18.824Z,26.21
2018-04-01T22:38:47.949Z,26.31
2018-04-01T22:41:17.375Z,26.20
2018-04-01T22:43:47.093Z,26.24
2018-04-01T22:46:16.261Z,26.26
2018-04-01T22:48:45.224Z,26.21
2018-04-01T22:51:14.342Z,26.20
2018-04-01T22:53:43.905Z,26.23
2018-04-01T22:56:13.455Z,26.18
2018-04-01T22:58:42.791Z,26.15
2018-04-01T23:01:12.050Z,26.18
2018-04-01T23:03:41.459Z,26.23
2018-04-01T23:06:10.611Z,26.22
2018-04-01T23:08:40.045Z,26.15
2018-04-01T23:11:09.019Z,26.20
2018-04-01T23:13:38.361Z,26.08
2018-04-01T23:16:07.644Z,26.09
2018-04-01T23:18:36.990Z,26.07
2018-04-01T23:21:06.172Z,26.12
2018-04-01T23:23:35.176Z,26.02
2018-04-01T23:26:04.174Z,26.06
2018-04-01T23:28:33.522Z,26.14
2018-04-01T23:31:02.905Z,26.01
2018-04-01T23:33:32.249Z,26.02
2018-04-01T23:36:01.840Z,26.08
2018-04-01T23:38:30.957Z,26.08
2018-04-01T23:40:59.870Z,26.13
2018-04-01T23:43:29.177Z,26.12
2018-04-01T23:45:58.551Z,26.12
2018-04-01T23:48:28.555Z,26.07
2018-04-01T23:50:57.579Z,26.02
2018-04-01T23:53:26.629Z,25.90
2018-04-01T23:55:55.815Z,25.95
2018-04-01T23:58:25.094Z,26.02
